sensor_id;sensor_type;location;lat;lon;timestamp;P1;durP1;ratioP1;P2;durP2;ratioP2
37877;SDS011;23715;53.652;8.516;2023-05-10T00:09:13;57.70;;;53.52;;
37877;SDS011;23715;53.652;8.516;2023-05-10T00:14:14;58.68;;;54.88;;
37877;SDS011;23715;53.652;8.516;2023-05-10T00:19:14;59.70;;;55.50;;
37877;SDS011;23715;53.652;8.516;2023-05-10T00:24:14;61.00;;;56.80;;
37877;SDS011;23715;53.652;8.516;2023-05-10T00:29:15;59.35;;;55.30;;
37877;SDS011;23715;53.652;8.516;2023-05-10T00:34:15;59.85;;;55.78;;
37877;SDS011;23715;53.652;8.516;2023-05-10T00:39:16;59.18;;;55.15;;
37877;SDS011;23715;53.652;8.516;2023-05-10T00:44:16;64.87;;;60.60;;
37877;SDS011;23715;53.652;8.516;2023-05-10T00:49:16;61.55;;;57.30;;
37877;SDS011;23715;53.652;8.516;2023-05-10T00:54:18;60.83;;;56.92;;
37877;SDS011;23715;53.652;8.516;2023-05-10T01:04:18;55.90;;;52.20;;
37877;SDS011;23715;53.652;8.516;2023-05-10T01:09:20;51.10;;;47.90;;
37877;SDS011;23715;53.652;8.516;2023-05-10T01:14:21;52.95;;;49.30;;
37877;SDS011;23715;53.652;8.516;2023-05-10T01:19:22;44.80;;;42.10;;
37877;SDS011;23715;53.652;8.516;2023-05-10T01:35:58;40.35;;;37.80;;
37877;SDS011;23715;53.652;8.516;2023-05-10T01:40:23;32.58;;;30.35;;
37877;SDS011;23715;53.652;8.516;2023-05-10T01:45:28;30.57;;;28.17;;
37877;SDS011;23715;53.652;8.516;2023-05-10T01:50:35;25.10;;;23.60;;
37877;SDS011;23715;53.652;8.516;2023-05-10T01:55:47;24.52;;;23.00;;
37877;SDS011;23715;53.652;8.516;2023-05-10T02:00:50;20.35;;;19.10;;
37877;SDS011;23715;53.652;8.516;2023-05-10T02:05:54;19.17;;;17.87;;
37877;SDS011;23715;53.652;8.516;2023-05-10T02:10:55;15.25;;;13.98;;
37877;SDS011;23715;53.652;8.516;2023-05-10T02:15:59;14.45;;;13.32;;
37877;SDS011;23715;53.652;8.516;2023-05-10T02:21:01;14.23;;;13.13;;
37877;SDS011;23715;53.652;8.516;2023-05-10T02:26:02;15.10;;;12.33;;
37877;SDS011;23715;53.652;8.516;2023-05-10T02:31:04;13.53;;;12.68;;
37877;SDS011;23715;53.652;8.516;2023-05-10T02:36:09;13.95;;;12.60;;
37877;SDS011;23715;53.652;8.516;2023-05-10T02:41:11;13.62;;;12.68;;
37877;SDS011;23715;53.652;8.516;2023-05-10T02:46:14;13.65;;;12.55;;
37877;SDS011;23715;53.652;8.516;2023-05-10T02:51:14;13.32;;;12.18;;
37877;SDS011;23715;53.652;8.516;2023-05-10T02:56:23;14.15;;;12.95;;
37877;SDS011;23715;53.652;8.516;2023-05-10T03:01:20;13.05;;;12.05;;
37877;SDS011;23715;53.652;8.516;2023-05-10T03:06:21;13.55;;;12.58;;
37877;SDS011;23715;53.652;8.516;2023-05-10T03:16:51;12.75;;;11.50;;
37877;SDS011;23715;53.652;8.516;2023-05-10T03:21:53;12.50;;;11.45;;
37877;SDS011;23715;53.652;8.516;2023-05-10T03:26:57;13.93;;;12.65;;
37877;SDS011;23715;53.652;8.516;2023-05-10T03:32:01;12.78;;;11.97;;
37877;SDS011;23715;53.652;8.516;2023-05-10T03:37:01;14.13;;;12.03;;
37877;SDS011;23715;53.652;8.516;2023-05-10T03:42:02;13.93;;;12.82;;
37877;SDS011;23715;53.652;8.516;2023-05-10T03:47:03;14.73;;;13.38;;
37877;SDS011;23715;53.652;8.516;2023-05-10T03:57:03;15.35;;;13.98;;
37877;SDS011;23715;53.652;8.516;2023-05-10T04:02:04;13.80;;;12.90;;
37877;SDS011;23715;53.652;8.516;2023-05-10T04:07:04;14.65;;;13.55;;
37877;SDS011;23715;53.652;8.516;2023-05-10T04:12:05;13.75;;;12.75;;
37877;SDS011;23715;53.652;8.516;2023-05-10T04:17:06;16.35;;;14.70;;
37877;SDS011;23715;53.652;8.516;2023-05-10T04:22:06;14.47;;;13.35;;
37877;SDS011;23715;53.652;8.516;2023-05-10T04:27:06;14.20;;;13.15;;
37877;SDS011;23715;53.652;8.516;2023-05-10T04:32:07;14.63;;;13.35;;
37877;SDS011;23715;53.652;8.516;2023-05-10T04:37:08;14.78;;;13.60;;
37877;SDS011;23715;53.652;8.516;2023-05-10T04:42:08;13.43;;;12.35;;
37877;SDS011;23715;53.652;8.516;2023-05-10T04:47:09;13.67;;;12.70;;
37877;SDS011;23715;53.652;8.516;2023-05-10T04:52:11;14.68;;;13.32;;
37877;SDS011;23715;53.652;8.516;2023-05-10T04:57:12;14.68;;;13.15;;
37877;SDS011;23715;53.652;8.516;2023-05-10T05:02:13;23.05;;;12.80;;
37877;SDS011;23715;53.652;8.516;2023-05-10T05:07:13;13.28;;;11.95;;
37877;SDS011;23715;53.652;8.516;2023-05-10T05:12:13;16.93;;;15.05;;
37877;SDS011;23715;53.652;8.516;2023-05-10T05:17:14;16.52;;;14.98;;
37877;SDS011;23715;53.652;8.516;2023-05-10T05:22:14;16.42;;;15.20;;
37877;SDS011;23715;53.652;8.516;2023-05-10T05:27:14;17.12;;;15.83;;
37877;SDS011;23715;53.652;8.516;2023-05-10T05:32:15;17.70;;;16.27;;
37877;SDS011;23715;53.652;8.516;2023-05-10T05:37:18;20.70;;;19.05;;
37877;SDS011;23715;53.652;8.516;2023-05-10T05:42:21;21.42;;;19.35;;
37877;SDS011;23715;53.652;8.516;2023-05-10T05:47:21;24.45;;;22.35;;
37877;SDS011;23715;53.652;8.516;2023-05-10T05:57:21;25.37;;;23.40;;
37877;SDS011;23715;53.652;8.516;2023-05-10T06:02:24;25.65;;;23.85;;
37877;SDS011;23715;53.652;8.516;2023-05-10T06:07:23;26.15;;;24.40;;
37877;SDS011;23715;53.652;8.516;2023-05-10T06:17:23;29.37;;;27.30;;
37877;SDS011;23715;53.652;8.516;2023-05-10T06:22:23;30.20;;;28.32;;
37877;SDS011;23715;53.652;8.516;2023-05-10T06:27:23;30.15;;;28.15;;
37877;SDS011;23715;53.652;8.516;2023-05-10T06:32:24;29.50;;;27.35;;
37877;SDS011;23715;53.652;8.516;2023-05-10T06:42:24;31.07;;;28.70;;
37877;SDS011;23715;53.652;8.516;2023-05-10T06:47:25;30.62;;;28.83;;
37877;SDS011;23715;53.652;8.516;2023-05-10T06:52:25;33.40;;;30.90;;
37877;SDS011;23715;53.652;8.516;2023-05-10T06:57:26;32.83;;;30.55;;
37877;SDS011;23715;53.652;8.516;2023-05-10T07:02:27;36.73;;;34.53;;
37877;SDS011;23715;53.652;8.516;2023-05-10T07:12:27;39.07;;;36.67;;
37877;SDS011;23715;53.652;8.516;2023-05-10T07:17:27;42.17;;;39.53;;
37877;SDS011;23715;53.652;8.516;2023-05-10T07:22:28;40.85;;;38.35;;
37877;SDS011;23715;53.652;8.516;2023-05-10T07:27:28;49.00;;;46.10;;
37877;SDS011;23715;53.652;8.516;2023-05-10T07:32:28;50.25;;;46.77;;
37877;SDS011;23715;53.652;8.516;2023-05-10T07:37:28;48.13;;;44.93;;
37877;SDS011;23715;53.652;8.516;2023-05-10T07:42:29;51.03;;;47.87;;
37877;SDS011;23715;53.652;8.516;2023-05-10T07:47:29;52.62;;;48.98;;
37877;SDS011;23715;53.652;8.516;2023-05-10T07:52:29;50.23;;;47.03;;
37877;SDS011;23715;53.652;8.516;2023-05-10T07:57:29;53.87;;;50.67;;
37877;SDS011;23715;53.652;8.516;2023-05-10T08:02:30;52.93;;;49.73;;
37877;SDS011;23715;53.652;8.516;2023-05-10T08:07:32;52.78;;;49.00;;
37877;SDS011;23715;53.652;8.516;2023-05-10T08:12:32;50.90;;;47.85;;
37877;SDS011;23715;53.652;8.516;2023-05-10T08:17:33;53.23;;;49.77;;
37877;SDS011;23715;53.652;8.516;2023-05-10T08:22:33;51.05;;;47.98;;
37877;SDS011;23715;53.652;8.516;2023-05-10T08:27:34;51.23;;;48.17;;
37877;SDS011;23715;53.652;8.516;2023-05-10T08:32:34;49.53;;;46.25;;
37877;SDS011;23715;53.652;8.516;2023-05-10T08:37:36;49.07;;;46.07;;
37877;SDS011;23715;53.652;8.516;2023-05-10T08:42:36;51.33;;;48.20;;
37877;SDS011;23715;53.652;8.516;2023-05-10T08:47:39;51.45;;;48.33;;
37877;SDS011;23715;53.652;8.516;2023-05-10T08:52:40;52.55;;;49.30;;
37877;SDS011;23715;53.652;8.516;2023-05-10T08:57:40;46.92;;;44.03;;
37877;SDS011;23715;53.652;8.516;2023-05-10T09:02:41;50.97;;;47.87;;
37877;SDS011;23715;53.652;8.516;2023-05-10T09:07:44;50.67;;;47.47;;
37877;SDS011;23715;53.652;8.516;2023-05-10T09:12:44;49.13;;;46.02;;
37877;SDS011;23715;53.652;8.516;2023-05-10T09:17:46;48.38;;;45.58;;
37877;SDS011;23715;53.652;8.516;2023-05-10T09:22:48;45.80;;;43.20;;
37877;SDS011;23715;53.652;8.516;2023-05-10T09:27:48;45.50;;;43.00;;
37877;SDS011;23715;53.652;8.516;2023-05-10T09:32:48;50.35;;;47.50;;
37877;SDS011;23715;53.652;8.516;2023-05-10T09:37:50;46.40;;;43.65;;
37877;SDS011;23715;53.652;8.516;2023-05-10T09:42:58;47.05;;;44.15;;
37877;SDS011;23715;53.652;8.516;2023-05-10T09:47:57;44.77;;;42.23;;
37877;SDS011;23715;53.652;8.516;2023-05-10T09:53:04;48.40;;;45.58;;
37877;SDS011;23715;53.652;8.516;2023-05-10T09:58:01;48.45;;;45.65;;
37877;SDS011;23715;53.652;8.516;2023-05-10T10:03:04;50.23;;;47.20;;
37877;SDS011;23715;53.652;8.516;2023-05-10T10:08:05;48.08;;;45.08;;
37877;SDS011;23715;53.652;8.516;2023-05-10T10:13:05;49.95;;;47.03;;
37877;SDS011;23715;53.652;8.516;2023-05-10T10:18:06;46.68;;;43.92;;
37877;SDS011;23715;53.652;8.516;2023-05-10T10:23:09;47.38;;;44.67;;
37877;SDS011;23715;53.652;8.516;2023-05-10T10:28:56;45.70;;;43.28;;
37877;SDS011;23715;53.652;8.516;2023-05-10T10:49:23;44.67;;;42.25;;
37877;SDS011;23715;53.652;8.516;2023-05-10T10:54:27;44.98;;;42.55;;
37877;SDS011;23715;53.652;8.516;2023-05-10T10:59:28;43.75;;;41.35;;
37877;SDS011;23715;53.652;8.516;2023-05-10T11:04:29;46.30;;;43.68;;
37877;SDS011;23715;53.652;8.516;2023-05-10T11:09:36;46.35;;;43.83;;
37877;SDS011;23715;53.652;8.516;2023-05-10T11:14:35;39.58;;;37.58;;
37877;SDS011;23715;53.652;8.516;2023-05-10T11:19:36;42.33;;;40.03;;
37877;SDS011;23715;53.652;8.516;2023-05-10T11:24:37;45.33;;;42.83;;
37877;SDS011;23715;53.652;8.516;2023-05-10T11:29:37;40.00;;;37.80;;
37877;SDS011;23715;53.652;8.516;2023-05-10T11:34:38;41.13;;;38.95;;
37877;SDS011;23715;53.652;8.516;2023-05-10T11:39:45;41.73;;;39.63;;
37877;SDS011;23715;53.652;8.516;2023-05-10T11:44:45;46.40;;;43.90;;
37877;SDS011;23715;53.652;8.516;2023-05-10T11:49:47;46.00;;;43.40;;
37877;SDS011;23715;53.652;8.516;2023-05-10T11:54:51;48.65;;;45.95;;
37877;SDS011;23715;53.652;8.516;2023-05-10T11:59:53;49.33;;;46.63;;
37877;SDS011;23715;53.652;8.516;2023-05-10T12:04:55;43.68;;;41.25;;
37877;SDS011;23715;53.652;8.516;2023-05-10T12:10:07;45.90;;;43.30;;
37877;SDS011;23715;53.652;8.516;2023-05-10T12:15:18;46.50;;;43.80;;
37877;SDS011;23715;53.652;8.516;2023-05-10T12:20:20;46.13;;;43.55;;
37877;SDS011;23715;53.652;8.516;2023-05-10T12:25:23;47.53;;;44.85;;
37877;SDS011;23715;53.652;8.516;2023-05-10T12:30:31;48.63;;;45.63;;
37877;SDS011;23715;53.652;8.516;2023-05-10T12:35:30;44.18;;;41.48;;
37877;SDS011;23715;53.652;8.516;2023-05-10T12:40:31;47.10;;;44.50;;
37877;SDS011;23715;53.652;8.516;2023-05-10T12:45:31;43.02;;;40.55;;
37877;SDS011;23715;53.652;8.516;2023-05-10T12:50:32;44.20;;;41.63;;
37877;SDS011;23715;53.652;8.516;2023-05-10T13:00:32;44.27;;;41.70;;
37877;SDS011;23715;53.652;8.516;2023-05-10T13:05:33;51.83;;;48.45;;
37877;SDS011;23715;53.652;8.516;2023-05-10T13:10:34;55.75;;;51.88;;
37877;SDS011;23715;53.652;8.516;2023-05-10T13:20:34;58.92;;;55.40;;
37877;SDS011;23715;53.652;8.516;2023-05-10T13:30:34;49.03;;;46.13;;
37877;SDS011;23715;53.652;8.516;2023-05-10T13:35:35;49.42;;;46.85;;
37877;SDS011;23715;53.652;8.516;2023-05-10T13:40:35;50.63;;;48.02;;
37877;SDS011;23715;53.652;8.516;2023-05-10T13:45:35;52.83;;;50.12;;
37877;SDS011;23715;53.652;8.516;2023-05-10T13:50:35;55.48;;;52.78;;
37877;SDS011;23715;53.652;8.516;2023-05-10T13:55:36;80.75;;;76.85;;
37877;SDS011;23715;53.652;8.516;2023-05-10T14:00:42;87.42;;;83.17;;
37877;SDS011;23715;53.652;8.516;2023-05-10T14:05:38;83.37;;;79.20;;
37877;SDS011;23715;53.652;8.516;2023-05-10T14:10:39;82.02;;;78.05;;
37877;SDS011;23715;53.652;8.516;2023-05-10T14:15:39;86.82;;;82.62;;
37877;SDS011;23715;53.652;8.516;2023-05-10T14:25:45;86.63;;;82.23;;
37877;SDS011;23715;53.652;8.516;2023-05-10T14:30:44;85.12;;;80.83;;
37877;SDS011;23715;53.652;8.516;2023-05-10T14:35:44;95.30;;;90.60;;
37877;SDS011;23715;53.652;8.516;2023-05-10T14:40:46;96.37;;;91.45;;
37877;SDS011;23715;53.652;8.516;2023-05-10T14:45:47;91.22;;;86.72;;
37877;SDS011;23715;53.652;8.516;2023-05-10T14:50:51;106.97;;;101.67;;
37877;SDS011;23715;53.652;8.516;2023-05-10T14:56:04;100.47;;;95.45;;
37877;SDS011;23715;53.652;8.516;2023-05-10T15:01:14;101.62;;;96.57;;
37877;SDS011;23715;53.652;8.516;2023-05-10T15:06:25;101.78;;;96.67;;
37877;SDS011;23715;53.652;8.516;2023-05-10T15:11:32;93.42;;;88.65;;
37877;SDS011;23715;53.652;8.516;2023-05-10T15:16:32;101.35;;;96.08;;
37877;SDS011;23715;53.652;8.516;2023-05-10T15:26:34;105.47;;;99.97;;
37877;SDS011;23715;53.652;8.516;2023-05-10T15:31:36;98.07;;;92.88;;
37877;SDS011;23715;53.652;8.516;2023-05-10T15:36:40;92.60;;;87.77;;
37877;SDS011;23715;53.652;8.516;2023-05-10T15:41:41;86.55;;;82.08;;
37877;SDS011;23715;53.652;8.516;2023-05-10T15:46:43;93.58;;;88.75;;
37877;SDS011;23715;53.652;8.516;2023-05-10T15:51:44;104.50;;;99.20;;
37877;SDS011;23715;53.652;8.516;2023-05-10T15:56:44;87.88;;;83.27;;
37877;SDS011;23715;53.652;8.516;2023-05-10T16:22:09;85.20;;;80.80;;
37877;SDS011;23715;53.652;8.516;2023-05-10T16:42:44;78.30;;;74.32;;
37877;SDS011;23715;53.652;8.516;2023-05-10T17:03:41;68.15;;;64.35;;
37877;SDS011;23715;53.652;8.516;2023-05-10T17:13:48;78.65;;;74.37;;
37877;SDS011;23715;53.652;8.516;2023-05-10T17:29:29;70.32;;;66.53;;
37877;SDS011;23715;53.652;8.516;2023-05-10T17:55:24;73.15;;;69.17;;
37877;SDS011;23715;53.652;8.516;2023-05-10T18:05:37;70.67;;;66.53;;
37877;SDS011;23715;53.652;8.516;2023-05-10T18:10:38;70.78;;;66.37;;
37877;SDS011;23715;53.652;8.516;2023-05-10T18:15:38;68.00;;;64.27;;
37877;SDS011;23715;53.652;8.516;2023-05-10T18:20:40;66.90;;;62.95;;
37877;SDS011;23715;53.652;8.516;2023-05-10T18:30:40;62.62;;;58.83;;
37877;SDS011;23715;53.652;8.516;2023-05-10T18:35:41;67.60;;;63.52;;
37877;SDS011;23715;53.652;8.516;2023-05-10T18:40:42;58.58;;;55.30;;
37877;SDS011;23715;53.652;8.516;2023-05-10T18:45:42;62.00;;;58.68;;
37877;SDS011;23715;53.652;8.516;2023-05-10T18:50:42;63.83;;;60.33;;
37877;SDS011;23715;53.652;8.516;2023-05-10T19:00:42;60.17;;;56.73;;
37877;SDS011;23715;53.652;8.516;2023-05-10T19:05:42;60.52;;;57.03;;
37877;SDS011;23715;53.652;8.516;2023-05-10T19:10:44;53.73;;;50.43;;
37877;SDS011;23715;53.652;8.516;2023-05-10T19:20:44;57.50;;;53.80;;
37877;SDS011;23715;53.652;8.516;2023-05-10T19:25:44;57.00;;;53.42;;
37877;SDS011;23715;53.652;8.516;2023-05-10T19:30:45;57.67;;;54.18;;
37877;SDS011;23715;53.652;8.516;2023-05-10T19:35:51;58.92;;;55.23;;
37877;SDS011;23715;53.652;8.516;2023-05-10T19:46:11;53.30;;;49.70;;
37877;SDS011;23715;53.652;8.516;2023-05-10T19:51:11;56.23;;;52.27;;
37877;SDS011;23715;53.652;8.516;2023-05-10T20:01:11;57.23;;;53.13;;
37877;SDS011;23715;53.652;8.516;2023-05-10T20:06:11;61.63;;;57.43;;
37877;SDS011;23715;53.652;8.516;2023-05-10T20:16:11;64.55;;;59.98;;
37877;SDS011;23715;53.652;8.516;2023-05-10T20:26:11;58.80;;;54.50;;
37877;SDS011;23715;53.652;8.516;2023-05-10T20:31:11;64.15;;;59.65;;
37877;SDS011;23715;53.652;8.516;2023-05-10T20:36:12;58.92;;;54.58;;
37877;SDS011;23715;53.652;8.516;2023-05-10T20:41:12;64.17;;;59.08;;
37877;SDS011;23715;53.652;8.516;2023-05-10T20:46:12;67.08;;;61.85;;
37877;SDS011;23715;53.652;8.516;2023-05-10T20:51:12;60.40;;;55.63;;
37877;SDS011;23715;53.652;8.516;2023-05-10T20:56:13;62.93;;;58.40;;
37877;SDS011;23715;53.652;8.516;2023-05-10T21:01:13;60.05;;;55.98;;
37877;SDS011;23715;53.652;8.516;2023-05-10T21:06:13;58.05;;;54.35;;
37877;SDS011;23715;53.652;8.516;2023-05-10T21:11:14;53.15;;;49.88;;
37877;SDS011;23715;53.652;8.516;2023-05-10T21:16:14;55.80;;;52.20;;
37877;SDS011;23715;53.652;8.516;2023-05-10T21:21:16;58.78;;;55.08;;
37877;SDS011;23715;53.652;8.516;2023-05-10T21:26:16;55.50;;;52.10;;
37877;SDS011;23715;53.652;8.516;2023-05-10T21:31:16;54.53;;;51.23;;
37877;SDS011;23715;53.652;8.516;2023-05-10T21:36:17;55.23;;;52.03;;
37877;SDS011;23715;53.652;8.516;2023-05-10T21:41:17;53.48;;;50.38;;
37877;SDS011;23715;53.652;8.516;2023-05-10T21:46:17;53.17;;;49.98;;
37877;SDS011;23715;53.652;8.516;2023-05-10T21:51:17;57.20;;;53.70;;
37877;SDS011;23715;53.652;8.516;2023-05-10T21:56:19;55.88;;;52.58;;
37877;SDS011;23715;53.652;8.516;2023-05-10T22:01:19;56.58;;;53.28;;
37877;SDS011;23715;53.652;8.516;2023-05-10T22:06:20;60.52;;;56.53;;
37877;SDS011;23715;53.652;8.516;2023-05-10T22:11:21;65.05;;;60.75;;
37877;SDS011;23715;53.652;8.516;2023-05-10T22:21:21;58.70;;;54.90;;
37877;SDS011;23715;53.652;8.516;2023-05-10T22:26:21;58.83;;;55.25;;
37877;SDS011;23715;53.652;8.516;2023-05-10T22:31:21;56.00;;;52.40;;
37877;SDS011;23715;53.652;8.516;2023-05-10T22:36:21;57.58;;;53.33;;
37877;SDS011;23715;53.652;8.516;2023-05-10T22:41:22;55.05;;;51.98;;
37877;SDS011;23715;53.652;8.516;2023-05-10T22:46:23;56.77;;;53.55;;
37877;SDS011;23715;53.652;8.516;2023-05-10T22:51:23;54.88;;;51.90;;
37877;SDS011;23715;53.652;8.516;2023-05-10T22:56:23;53.98;;;49.40;;
37877;SDS011;23715;53.652;8.516;2023-05-10T23:06:24;53.87;;;50.83;;
37877;SDS011;23715;53.652;8.516;2023-05-10T23:11:25;54.70;;;51.83;;
37877;SDS011;23715;53.652;8.516;2023-05-10T23:16:26;53.17;;;50.30;;
37877;SDS011;23715;53.652;8.516;2023-05-10T23:21:27;50.67;;;47.98;;
37877;SDS011;23715;53.652;8.516;2023-05-10T23:26:28;51.23;;;48.33;;
37877;SDS011;23715;53.652;8.516;2023-05-10T23:31:28;53.20;;;49.75;;
37877;SDS011;23715;53.652;8.516;2023-05-10T23:36:30;48.35;;;45.55;;
37877;SDS011;23715;53.652;8.516;2023-05-10T23:41:30;48.30;;;45.48;;
37877;SDS011;23715;53.652;8.516;2023-05-10T23:46:31;45.10;;;42.55;;
37877;SDS011;23715;53.652;8.516;2023-05-10T23:51:31;47.15;;;44.45;;
37877;SDS011;23715;53.652;8.516;2023-05-10T23:56:31;47.23;;;44.70;;
